createdAt,value
2023-12-27T00:02:03.110Z,10.60
2023-12-27T00:04:31.370Z,12.23
2023-12-27T00:06:59.610Z,17.37
2023-12-27T00:09:27.641Z,10.60
2023-12-27T00:11:57.065Z,15.83
2023-12-27T00:14:25.093Z,9.13
2023-12-27T00:16:53.108Z,11.90
2023-12-27T00:19:21.330Z,15.17
2023-12-27T00:21:49.518Z,8.33
2023-12-27T00:24:17.605Z,14.80
2023-12-27T00:26:45.986Z,17.47
2023-12-27T00:29:15.410Z,9.80
2023-12-27T00:31:43.856Z,20.20
2023-12-27T00:34:12.111Z,10.20
2023-12-27T00:36:40.280Z,11.67
2023-12-27T00:39:11.542Z,6.10
2023-12-27T00:41:39.907Z,6.83
2023-12-27T00:44:08.063Z,10.13
2023-12-27T00:46:38.712Z,14.33
2023-12-27T00:49:07.033Z,15.27
2023-12-27T00:51:35.560Z,9.73
2023-12-27T00:54:03.694Z,7.00
2023-12-27T00:56:31.840Z,7.90
2023-12-27T00:59:00.241Z,7.63
2023-12-27T01:01:31.129Z,7.87
2023-12-27T01:04:00.992Z,7.93
2023-12-27T01:06:29.282Z,17.23
2023-12-27T01:08:58.684Z,13.47
2023-12-27T01:11:28.773Z,15.63
2023-12-27T01:13:56.887Z,22.70
2023-12-27T01:16:25.585Z,16.33
2023-12-27T01:18:54.197Z,17.43
2023-12-27T01:21:23.836Z,8.27
2023-12-27T01:23:51.866Z,5.87
2023-12-27T01:26:19.856Z,11.93
2023-12-27T01:28:47.911Z,17.90
2023-12-27T01:31:15.968Z,13.37
2023-12-27T01:33:44.301Z,13.10
2023-12-27T01:36:12.600Z,11.53
2023-12-27T01:38:41.967Z,10.07
2023-12-27T01:41:10.017Z,16.40
2023-12-27T01:43:38.863Z,9.17
2023-12-27T01:46:07.333Z,14.93
2023-12-27T01:48:37.640Z,20.63
2023-12-27T01:51:07.274Z,13.60
2023-12-27T01:53:35.674Z,12.93
2023-12-27T01:56:05.493Z,9.57
2023-12-27T01:58:34.115Z,11.60
2023-12-27T02:01:02.432Z,13.50
2023-12-27T02:03:31.553Z,15.93
2023-12-27T02:06:00.304Z,14.00
2023-12-27T02:08:28.939Z,10.53
2023-12-27T02:10:57.321Z,19.53
2023-12-27T02:13:26.716Z,11.63
2023-12-27T02:15:55.045Z,8.20
2023-12-27T02:18:23.703Z,12.70
2023-12-27T02:20:53.225Z,10.10
2023-12-27T02:23:23.147Z,10.20
2023-12-27T02:25:54.506Z,9.10
2023-12-27T02:28:22.568Z,9.40
2023-12-27T02:30:50.934Z,11.10
2023-12-27T02:33:19.137Z,18.03
2023-12-27T02:35:47.404Z,15.47
2023-12-27T02:38:15.509Z,23.47
2023-12-27T02:40:43.609Z,11.93
2023-12-27T02:43:12.991Z,12.70
2023-12-27T02:45:41.211Z,12.57
2023-12-27T02:48:09.512Z,18.23
2023-12-27T02:50:37.747Z,16.73
2023-12-27T02:53:05.805Z,19.20
2023-12-27T02:55:34.360Z,14.33
2023-12-27T02:58:02.414Z,12.33
2023-12-27T03:00:36.315Z,18.67
2023-12-27T03:03:04.979Z,6.63
2023-12-27T03:05:33.408Z,12.27
2023-12-27T03:08:01.511Z,14.10
2023-12-27T03:10:29.502Z,27.87
2023-12-27T03:12:57.544Z,18.80
2023-12-27T03:15:25.560Z,11.63
2023-12-27T03:17:55.229Z,18.20
2023-12-27T03:20:23.738Z,16.80
2023-12-27T03:22:51.764Z,14.20
2023-12-27T03:25:19.792Z,14.33
2023-12-27T03:27:48.206Z,13.10
2023-12-27T03:30:16.722Z,12.43
2023-12-27T03:32:44.809Z,10.73
2023-12-27T03:35:14.267Z,13.07
2023-12-27T03:37:46.136Z,5.50
2023-12-27T03:40:14.510Z,17.37
2023-12-27T03:42:42.529Z,10.30
2023-12-27T03:45:11.117Z,13.20
2023-12-27T03:47:39.193Z,13.67
2023-12-27T03:50:08.103Z,12.23
2023-12-27T03:52:37.492Z,20.77
2023-12-27T03:55:06.496Z,7.27
2023-12-27T03:57:34.686Z,8.90
2023-12-27T04:00:02.919Z,12.63
2023-12-27T04:02:35.505Z,16.13
2023-12-27T04:05:03.637Z,5.80
2023-12-27T04:07:31.890Z,10.77
2023-12-27T04:10:01.286Z,12.83
2023-12-27T04:12:29.650Z,7.67
2023-12-27T04:14:57.746Z,17.53
2023-12-27T04:17:26.609Z,13.33
2023-12-27T04:19:55.208Z,11.30
2023-12-27T04:22:23.250Z,15.17
2023-12-27T04:24:51.314Z,13.20
2023-12-27T04:27:20.784Z,15.63
2023-12-27T04:29:48.844Z,15.13
2023-12-27T04:32:16.873Z,11.33
2023-12-27T04:34:45.022Z,10.83
2023-12-27T04:37:13.205Z,11.53
2023-12-27T04:39:41.260Z,17.43
2023-12-27T04:42:09.347Z,15.70
2023-12-27T04:44:38.748Z,13.40
2023-12-27T04:47:08.707Z,11.77
2023-12-27T04:49:36.945Z,15.13
2023-12-27T04:52:06.697Z,18.20
2023-12-27T04:54:34.835Z,8.70
2023-12-27T04:57:02.907Z,14.17
2023-12-27T04:59:31.860Z,9.43
2023-12-27T05:02:01.327Z,5.30
2023-12-27T05:04:29.375Z,24.93
2023-12-27T05:06:57.547Z,16.03
2023-12-27T05:09:25.662Z,8.63
2023-12-27T05:11:53.694Z,17.20
2023-12-27T05:14:21.740Z,12.03
2023-12-27T05:16:50.018Z,12.20
2023-12-27T05:19:19.798Z,13.00
2023-12-27T05:21:47.924Z,24.67
2023-12-27T05:24:16.026Z,14.70
2023-12-27T05:26:44.341Z,10.60
2023-12-27T05:29:12.717Z,19.63
2023-12-27T05:31:40.824Z,11.00
2023-12-27T05:34:09.115Z,15.43
2023-12-27T05:36:38.725Z,16.43
2023-12-27T05:39:06.895Z,12.83
2023-12-27T05:41:34.927Z,9.47
2023-12-27T05:44:03.543Z,11.30
2023-12-27T05:46:35.929Z,10.63
2023-12-27T05:49:04.801Z,10.80
2023-12-27T05:51:34.347Z,10.87
2023-12-27T05:54:04.493Z,12.30
2023-12-27T05:56:33.341Z,11.80
2023-12-27T05:59:01.348Z,8.20
2023-12-27T06:01:29.987Z,17.43
2023-12-27T06:03:58.195Z,12.43
2023-12-27T06:06:26.296Z,8.60
2023-12-27T06:08:54.599Z,11.30
2023-12-27T06:11:24.132Z,15.30
2023-12-27T06:13:52.159Z,11.83
2023-12-27T06:16:20.142Z,15.03
2023-12-27T06:18:48.240Z,16.77
2023-12-27T06:21:16.282Z,8.83
2023-12-27T06:23:44.326Z,6.83
2023-12-27T06:26:12.443Z,8.20
2023-12-27T06:28:42.956Z,7.47
2023-12-27T06:31:11.226Z,8.13
2023-12-27T06:33:39.513Z,14.00
2023-12-27T06:36:08.657Z,9.37
2023-12-27T06:38:36.777Z,7.43
2023-12-27T06:41:05.103Z,17.60
2023-12-27T06:43:34.295Z,12.13
2023-12-27T06:46:03.096Z,13.30
2023-12-27T06:48:31.559Z,17.63
2023-12-27T06:50:59.783Z,12.53
2023-12-27T06:53:27.900Z,10.20
2023-12-27T06:55:55.921Z,11.50
2023-12-27T06:58:23.948Z,9.43
2023-12-27T07:00:53.967Z,14.43
2023-12-27T07:03:24.136Z,22.07
2023-12-27T07:05:52.390Z,8.37
2023-12-27T07:08:20.390Z,15.90
2023-12-27T07:10:48.426Z,6.03
2023-12-27T07:13:16.525Z,13.73
2023-12-27T07:15:44.584Z,8.10
2023-12-27T07:18:12.924Z,14.73
2023-12-27T07:20:42.369Z,10.47
2023-12-27T07:23:11.640Z,8.83
2023-12-27T07:25:39.813Z,7.37
2023-12-27T07:28:08.449Z,10.83
2023-12-27T07:30:36.593Z,11.43
2023-12-27T07:33:05.301Z,10.53
2023-12-27T07:35:33.692Z,14.57
2023-12-27T07:38:03.068Z,10.00
2023-12-27T07:40:31.116Z,8.67
2023-12-27T07:42:59.140Z,10.20
2023-12-27T07:45:27.276Z,15.90
2023-12-27T07:47:55.561Z,11.17
2023-12-27T07:50:23.778Z,7.33
2023-12-27T07:52:51.793Z,6.50
2023-12-27T07:55:21.199Z,8.07
2023-12-27T07:57:49.270Z,15.23
2023-12-27T08:00:19.319Z,14.70
2023-12-27T08:02:48.122Z,14.23
2023-12-27T08:05:17.107Z,15.23
2023-12-27T08:07:45.175Z,6.10
2023-12-27T08:10:13.274Z,12.80
2023-12-27T08:12:44.676Z,7.27
2023-12-27T08:15:13.029Z,15.60
2023-12-27T08:17:41.144Z,13.80
2023-12-27T08:20:11.621Z,9.53
2023-12-27T08:22:39.673Z,9.73
2023-12-27T08:25:13.517Z,13.00
2023-12-27T08:27:43.093Z,9.53
2023-12-27T08:30:11.781Z,6.40
2023-12-27T08:32:39.983Z,7.73
2023-12-27T08:35:08.685Z,8.70
2023-12-27T08:37:36.754Z,14.80
2023-12-27T08:40:05.399Z,11.63
2023-12-27T08:42:33.515Z,9.10
2023-12-27T08:45:03.252Z,23.67
2023-12-27T08:47:31.404Z,9.73
2023-12-27T08:50:04.319Z,8.60
2023-12-27T08:52:33.724Z,9.67
2023-12-27T08:55:03.397Z,6.97
2023-12-27T08:57:33.412Z,14.13
2023-12-27T09:00:03.646Z,13.03
2023-12-27T09:02:31.709Z,9.03
2023-12-27T09:04:59.861Z,12.50
2023-12-27T09:07:27.881Z,11.73
2023-12-27T09:09:57.301Z,13.87
2023-12-27T09:12:27.807Z,12.07
2023-12-27T09:14:55.836Z,7.80
2023-12-27T09:17:25.291Z,9.63
2023-12-27T09:19:53.770Z,15.93
2023-12-27T09:22:21.890Z,9.43
2023-12-27T09:24:50.163Z,7.47
2023-12-27T09:27:19.224Z,17.83
2023-12-27T09:29:47.338Z,11.23
2023-12-27T09:32:15.758Z,9.37
2023-12-27T09:34:45.246Z,15.63
2023-12-27T09:37:13.442Z,12.83
2023-12-27T09:39:41.529Z,9.40
2023-12-27T09:42:10.207Z,9.17
2023-12-27T09:44:39.671Z,10.43
2023-12-27T09:47:10.435Z,11.17
2023-12-27T09:49:39.764Z,10.07
2023-12-27T09:52:10.176Z,7.03
2023-12-27T09:54:38.444Z,8.13
2023-12-27T09:57:08.406Z,7.00
2023-12-27T09:59:40.942Z,12.03
2023-12-27T10:02:16.698Z,10.57
2023-12-27T10:04:50.158Z,10.20
2023-12-27T10:07:22.193Z,7.27
2023-12-27T10:09:50.540Z,7.00
2023-12-27T10:12:18.845Z,6.00
2023-12-27T10:14:48.806Z,4.87
2023-12-27T10:17:16.981Z,7.63
2023-12-27T10:19:46.105Z,4.90
2023-12-27T10:22:15.111Z,6.17
2023-12-27T10:24:44.566Z,5.53
2023-12-27T10:27:17.062Z,4.80
2023-12-27T10:29:49.803Z,9.03
2023-12-27T10:32:19.061Z,6.03
2023-12-27T10:34:47.923Z,6.77
2023-12-27T10:37:18.504Z,8.60
2023-12-27T10:39:48.417Z,4.60
2023-12-27T10:42:17.829Z,7.23
2023-12-27T10:44:48.085Z,12.23
2023-12-27T10:47:19.427Z,7.60
2023-12-27T10:49:49.632Z,3.83
2023-12-27T10:52:18.971Z,7.20
2023-12-27T10:54:54.559Z,5.30
2023-12-27T10:57:27.016Z,6.90
2023-12-27T10:59:56.300Z,3.60
2023-12-27T11:02:25.601Z,10.00
2023-12-27T11:04:54.811Z,6.17
2023-12-27T11:07:25.641Z,4.23
2023-12-27T11:09:57.466Z,4.87
2023-12-27T11:12:27.123Z,2.70
2023-12-27T11:14:57.229Z,4.80
2023-12-27T11:17:28.912Z,5.87
2023-12-27T11:19:57.104Z,3.40
2023-12-27T11:22:25.245Z,3.27
2023-12-27T11:24:55.947Z,5.03
2023-12-27T11:27:24.418Z,8.20
2023-12-27T11:29:52.529Z,6.80
2023-12-27T11:32:21.316Z,6.87
2023-12-27T11:34:49.533Z,1.70
2023-12-27T11:37:18.448Z,2.63
2023-12-27T11:39:49.854Z,4.73
2023-12-27T11:42:19.520Z,5.90
2023-12-27T11:44:50.749Z,1.80
2023-12-27T11:47:18.899Z,1.80
2023-12-27T11:50:22.156Z,3.37
2023-12-27T11:52:59.800Z,1.03
2023-12-27T11:55:35.492Z,1.57
2023-12-27T11:58:05.436Z,2.20
2023-12-27T12:00:33.683Z,1.40
2023-12-27T12:03:05.095Z,1.30
2023-12-27T12:05:50.492Z,5.80
2023-12-27T12:08:30.240Z,1.67
2023-12-27T12:11:09.134Z,2.30
2023-12-27T12:13:39.749Z,4.17
2023-12-27T12:16:08.647Z,4.10
2023-12-27T12:18:38.323Z,1.43
2023-12-27T12:21:06.662Z,1.40
2023-12-27T12:23:38.788Z,4.10
2023-12-27T12:26:07.876Z,1.30
2023-12-27T12:28:36.048Z,1.70
2023-12-27T12:31:05.809Z,3.43
2023-12-27T12:33:34.007Z,1.20
2023-12-27T12:36:02.168Z,1.97
2023-12-27T12:38:30.403Z,5.70
2023-12-27T12:40:58.475Z,2.23
2023-12-27T12:43:27.374Z,4.77
2023-12-27T12:45:58.678Z,4.00
2023-12-27T12:48:28.572Z,6.00
2023-12-27T12:51:11.207Z,1.20
2023-12-27T12:53:39.835Z,3.03
2023-12-27T12:56:10.043Z,2.63
2023-12-27T12:58:39.481Z,2.53
2023-12-27T13:01:09.886Z,4.13
2023-12-27T13:03:42.413Z,4.67
2023-12-27T13:06:10.827Z,2.73
2023-12-27T13:08:38.916Z,4.87
2023-12-27T13:11:07.160Z,2.80
2023-12-27T13:13:35.444Z,8.73
2023-12-27T13:16:03.458Z,3.93
2023-12-27T13:18:31.904Z,2.70
2023-12-27T13:21:02.268Z,2.63
2023-12-27T13:23:30.392Z,7.13
2023-12-27T13:25:58.424Z,4.83
2023-12-27T13:28:27.149Z,14.20
2023-12-27T13:30:55.670Z,17.03
2023-12-27T13:33:26.270Z,6.63
2023-12-27T13:35:54.506Z,6.73
2023-12-27T13:38:23.940Z,9.20
2023-12-27T13:40:52.416Z,7.23
2023-12-27T13:43:20.472Z,6.27
2023-12-27T13:45:48.809Z,10.83
2023-12-27T13:48:20.449Z,3.93
2023-12-27T13:50:50.378Z,9.10
2023-12-27T13:53:18.597Z,6.40
2023-12-27T13:55:48.002Z,9.93
2023-12-27T13:58:16.027Z,13.03
2023-12-27T14:00:44.128Z,3.13
2023-12-27T14:03:12.454Z,11.90
2023-12-27T14:05:43.787Z,8.73
2023-12-27T14:08:12.358Z,2.33
2023-12-27T14:10:40.437Z,4.83
2023-12-27T14:13:09.826Z,2.20
2023-12-27T14:15:38.131Z,1.83
2023-12-27T14:18:07.770Z,3.43
2023-12-27T14:20:35.943Z,4.57
2023-12-27T14:23:04.061Z,7.10
2023-12-27T14:25:36.342Z,1.60
2023-12-27T14:28:05.828Z,6.83
2023-12-27T14:30:36.228Z,3.83
2023-12-27T14:33:05.346Z,3.53
2023-12-27T14:35:33.539Z,7.30
2023-12-27T14:38:01.796Z,3.10
2023-12-27T14:40:31.221Z,7.40
2023-12-27T14:43:00.256Z,7.50
2023-12-27T14:45:28.786Z,4.20
2023-12-27T14:47:58.583Z,7.63
2023-12-27T14:50:28.235Z,2.60
2023-12-27T14:52:57.420Z,10.07
2023-12-27T14:55:33.235Z,8.10
2023-12-27T14:58:04.425Z,6.47
2023-12-27T15:00:32.597Z,3.40
2023-12-27T15:03:02.036Z,7.50
2023-12-27T15:05:30.080Z,7.83
2023-12-27T15:07:58.487Z,9.83
2023-12-27T15:10:26.832Z,7.23
2023-12-27T15:12:55.197Z,4.50
2023-12-27T15:15:23.409Z,4.33
2023-12-27T15:17:52.170Z,5.00
2023-12-27T15:20:22.531Z,4.20
2023-12-27T15:22:50.915Z,5.33
2023-12-27T15:25:18.959Z,2.70
2023-12-27T15:27:47.354Z,3.30
2023-12-27T15:30:16.378Z,6.00
2023-12-27T15:32:44.586Z,6.87
2023-12-27T15:35:12.823Z,1.60
2023-12-27T15:37:42.247Z,3.30
2023-12-27T15:40:11.259Z,2.07
2023-12-27T15:42:39.393Z,2.60
2023-12-27T15:45:08.950Z,4.40
2023-12-27T15:47:37.521Z,2.57
2023-12-27T15:50:06.621Z,4.33
2023-12-27T15:52:35.091Z,2.37
2023-12-27T15:55:05.450Z,9.30
2023-12-27T15:57:33.568Z,6.20
2023-12-27T16:00:01.672Z,2.47
2023-12-27T16:02:32.229Z,1.30
2023-12-27T16:05:00.404Z,2.57
2023-12-27T16:07:29.406Z,5.90
2023-12-27T16:09:57.538Z,1.93
2023-12-27T16:12:26.757Z,4.50
2023-12-27T16:14:54.978Z,5.23
2023-12-27T16:17:23.008Z,1.53
2023-12-27T16:19:53.294Z,6.00
2023-12-27T16:22:22.206Z,9.40
2023-12-27T16:24:50.746Z,3.80
2023-12-27T16:27:18.971Z,6.53
2023-12-27T16:29:48.385Z,1.70
2023-12-27T16:32:17.707Z,3.00
2023-12-27T16:34:45.972Z,6.10
2023-12-27T16:37:14.042Z,3.70
2023-12-27T16:39:42.197Z,6.73
2023-12-27T16:42:10.770Z,5.53
2023-12-27T16:44:38.904Z,4.10
2023-12-27T16:47:08.818Z,8.03
2023-12-27T16:49:36.946Z,6.17
2023-12-27T16:52:05.851Z,4.83
2023-12-27T16:54:33.991Z,3.33
2023-12-27T16:57:02.221Z,7.20
2023-12-27T16:59:30.303Z,3.30
2023-12-27T17:01:58.353Z,6.27
2023-12-27T17:04:27.817Z,4.27
2023-12-27T17:06:55.946Z,9.10
2023-12-27T17:09:23.996Z,5.13
2023-12-27T17:11:52.030Z,5.80
2023-12-27T17:14:20.086Z,6.33
2023-12-27T17:16:48.160Z,10.30
2023-12-27T17:19:16.509Z,2.87
2023-12-27T17:21:46.004Z,3.20
2023-12-27T17:24:14.608Z,6.17
2023-12-27T17:26:42.669Z,8.50
2023-12-27T17:29:10.651Z,5.23
2023-12-27T17:31:39.028Z,6.20
2023-12-27T17:34:07.258Z,7.00
2023-12-27T17:36:35.345Z,4.07
2023-12-27T17:39:03.883Z,3.83
2023-12-27T17:41:31.963Z,4.00
2023-12-27T17:44:00.048Z,2.80
2023-12-27T17:46:28.057Z,4.63
2023-12-27T17:48:56.322Z,8.50
2023-12-27T17:51:24.902Z,7.63
2023-12-27T17:53:53.072Z,6.20
2023-12-27T17:56:22.443Z,2.20
2023-12-27T17:58:50.495Z,5.13
2023-12-27T18:01:18.688Z,7.50
2023-12-27T18:03:46.852Z,9.93
2023-12-27T18:06:15.004Z,3.33
2023-12-27T18:08:45.971Z,6.03
2023-12-27T18:11:15.938Z,4.20
2023-12-27T18:13:45.340Z,2.30
2023-12-27T18:16:13.594Z,3.50
2023-12-27T18:18:41.997Z,4.50
2023-12-27T18:21:11.481Z,2.13
2023-12-27T18:23:39.787Z,2.30
2023-12-27T18:26:08.133Z,7.47
2023-12-27T18:28:37.357Z,9.53
2023-12-27T18:31:06.899Z,3.97
2023-12-27T18:33:35.185Z,6.43
2023-12-27T18:36:04.809Z,5.40
2023-12-27T18:38:32.926Z,11.90
2023-12-27T18:41:01.060Z,2.83
2023-12-27T18:43:29.160Z,9.33
2023-12-27T18:45:57.776Z,11.13
2023-12-27T18:48:27.643Z,5.17
2023-12-27T18:50:55.850Z,3.17
2023-12-27T18:53:24.031Z,4.57
2023-12-27T18:55:52.083Z,5.43
2023-12-27T18:58:20.132Z,4.83
2023-12-27T19:00:49.116Z,3.37
2023-12-27T19:03:17.496Z,2.77
2023-12-27T19:05:49.143Z,2.23
2023-12-27T19:08:17.167Z,6.13
2023-12-27T19:10:45.261Z,6.90
2023-12-27T19:13:13.290Z,4.60
2023-12-27T19:15:41.395Z,9.70
2023-12-27T19:18:09.855Z,12.77
2023-12-27T19:20:37.941Z,8.43
2023-12-27T19:23:07.314Z,6.57
2023-12-27T19:25:35.373Z,4.20
2023-12-27T19:28:04.425Z,5.43
2023-12-27T19:30:32.559Z,7.33
2023-12-27T19:33:01.055Z,5.60
2023-12-27T19:35:29.468Z,4.60
2023-12-27T19:37:58.516Z,8.57
2023-12-27T19:40:28.778Z,6.83
2023-12-27T19:42:57.040Z,5.60
2023-12-27T19:45:25.277Z,5.60
2023-12-27T19:47:53.379Z,6.40
2023-12-27T19:50:21.469Z,4.17
2023-12-27T19:52:49.633Z,6.00
2023-12-27T19:55:19.249Z,2.50
2023-12-27T19:57:50.148Z,2.00
2023-12-27T20:00:18.745Z,3.70
2023-12-27T20:02:46.817Z,3.10
2023-12-27T20:05:14.950Z,4.30
2023-12-27T20:07:43.069Z,9.33
2023-12-27T20:10:11.867Z,2.47
2023-12-27T20:12:40.157Z,3.23
2023-12-27T20:15:11.165Z,6.77
2023-12-27T20:17:39.593Z,3.03
2023-12-27T20:20:08.725Z,2.50
2023-12-27T20:22:36.781Z,3.20
2023-12-27T20:25:05.164Z,26.10
2023-12-27T20:27:33.231Z,7.70
2023-12-27T20:30:01.345Z,13.67
2023-12-27T20:32:32.595Z,7.03
2023-12-27T20:35:01.628Z,3.77
2023-12-27T20:37:29.862Z,3.13
2023-12-27T20:39:59.665Z,2.17
2023-12-27T20:42:28.040Z,2.83
2023-12-27T20:44:56.095Z,4.23
2023-12-27T20:47:24.136Z,5.23
2023-12-27T20:49:53.752Z,2.13
2023-12-27T20:52:22.068Z,1.50
2023-12-27T20:54:50.226Z,3.40
2023-12-27T20:57:18.340Z,3.30
2023-12-27T20:59:47.765Z,8.83
2023-12-27T21:02:15.830Z,5.10
2023-12-27T21:04:46.580Z,6.23
2023-12-27T21:07:18.228Z,3.07
2023-12-27T21:09:46.322Z,3.50
2023-12-27T21:12:14.421Z,1.30
2023-12-27T21:14:42.509Z,4.17
2023-12-27T21:17:10.545Z,1.93
2023-12-27T21:19:38.672Z,3.47
2023-12-27T21:22:06.761Z,1.73
2023-12-27T21:24:36.525Z,1.67
2023-12-27T21:27:05.362Z,1.90
2023-12-27T21:29:33.395Z,1.90
2023-12-27T21:32:01.683Z,3.60
2023-12-27T21:34:29.842Z,1.43
2023-12-27T21:36:58.009Z,1.77
2023-12-27T21:39:25.145Z,3.10
2023-12-27T21:41:56.861Z,1.97
2023-12-27T21:44:25.024Z,2.40
2023-12-27T21:46:53.046Z,2.10
2023-12-27T21:49:21.334Z,2.03
2023-12-27T21:51:49.535Z,4.80
2023-12-27T21:54:17.599Z,7.83
2023-12-27T21:56:45.643Z,3.00
2023-12-27T21:59:15.051Z,2.80
2023-12-27T22:01:43.360Z,3.23
2023-12-27T22:04:11.475Z,1.57
2023-12-27T22:06:40.535Z,2.83
2023-12-27T22:09:09.403Z,4.70
2023-12-27T22:11:37.455Z,3.07
2023-12-27T22:14:06.969Z,3.90
2023-12-27T22:16:37.409Z,1.40
2023-12-27T22:19:05.608Z,3.00
2023-12-27T22:21:33.790Z,2.70
2023-12-27T22:24:01.917Z,2.20
2023-12-27T22:26:30.008Z,3.10
2023-12-27T22:28:58.076Z,3.00
2023-12-27T22:31:26.505Z,3.00
2023-12-27T22:33:56.048Z,2.27
2023-12-27T22:36:25.273Z,2.07
2023-12-27T22:38:55.813Z,3.17
2023-12-27T22:41:23.259Z,2.43
2023-12-27T22:43:51.710Z,2.60
2023-12-27T22:46:19.778Z,1.43
2023-12-27T22:48:48.033Z,1.30
2023-12-27T22:51:17.735Z,6.47
2023-12-27T22:53:45.901Z,1.93
2023-12-27T22:56:14.058Z,1.23
2023-12-27T22:58:42.107Z,2.23
2023-12-27T23:01:10.877Z,2.50
2023-12-27T23:03:39.070Z,3.40
2023-12-27T23:06:10.913Z,3.27
2023-12-27T23:08:40.609Z,1.93
2023-12-27T23:11:08.863Z,3.90
2023-12-27T23:13:36.901Z,1.93
2023-12-27T23:16:05.250Z,7.60
2023-12-27T23:18:33.516Z,1.60
2023-12-27T23:21:01.712Z,2.43
2023-12-27T23:23:29.756Z,1.60
2023-12-27T23:26:02.297Z,2.57
2023-12-27T23:28:30.907Z,5.33
2023-12-27T23:30:59.136Z,2.43
2023-12-27T23:33:27.490Z,4.43
2023-12-27T23:35:55.670Z,2.53
2023-12-27T23:38:23.699Z,2.20
2023-12-27T23:40:51.692Z,5.20
2023-12-27T23:43:21.410Z,3.00
2023-12-27T23:45:49.498Z,2.03
2023-12-27T23:48:18.395Z,3.00
2023-12-27T23:50:46.678Z,1.93
2023-12-27T23:53:14.731Z,3.70
2023-12-27T23:55:42.740Z,3.87
2023-12-27T23:58:10.789Z,4.70
